Shavano Park, Texas
Current Conditions -  °F | °C
As of 5:51 AM on Saturday 25 Oct 2014 (Local Time) from KSAT Reporting Station
Clear Clear  
Wind Chill: 62°   Ceiling: Unl
Heat Index: 62°   Visibility: 10mi
Dew Point: 57°   Wind: 3mph
Humidity: 84%   Direction: 320°NW
Pressure: 30.16"   Gusts: NA
Location:  29.5766°N, 98.5421°W
Report Text: KSAT 251051Z 32003KT 10SM CLR 17/14 A3016 RMK AO2 SLP195 T01670139 $
Loading
Personal Weather Stations






























Interactive Weather Map
Tropical Storm Tracking
New forecast layout! Learn more

10-Day Weather Forecast

Advertisements
Track Severe Weather on mobile